Accueil
METAR-TAF:

METAR-TAF

Aéroports :

Aéroport de Kangiqsujuaq

Kangiqsujuaq, Québec, Canada

latitude: 61-35N, longitude: 071-56W, altitude: 151 m

Observation

Le bulletin a été fait il y a 8 heures et 44 minutes, à 19:06 UTC
Vent 30 kt de nord-ouest avec des rafales jusqu'à 36 kt
Température -7°C
Humidité 73%
Pression 1000 hPa
Visibilité: 9.7 km
Quelques nuages à une hauteur de 1500 ft
Ciel couvert à une hauteur de 5000 ft
Chasse-neige élevée

METAR: CYKG 111906Z 32030G36KT 6SM BLSN FEW015 OVC050 M07/M11 A2954 RMK ST2SC6 SLP020

Heure: 22:50 (03:50 UTC)

Prévision

Le bulletin a été fait il y a 13 heures et 12 minutes, à 14:38 UTC
Prévision valable du 11 à 15 UTC au 11 à 22 UTC
Vent 28 kt de nord-ouest avec des rafales jusqu'à 38 kt
Visibilité: 10 km

TAF: CYKG 111438Z 1115/1122 31028G38KT P6SM FCST NOT AVBL DUE NO OBS RMK NXT FCST WILL BE ISSUED AT 121445Z

Observations et prévisions météorologiques de plus de 4000 aéroports (messages METAR et TAF).

Les stations disponibles sont représentées par des disques jaunes et rouges sur la carte.

Passer la souris dessus pour voir le nom de la station.

Cliquer dessus pour voir les observations et prévisions météorologiques.

Pour changer de carte: cliquez sur les boutons verts avec une croix noire pour zoomer, sur le bouton vert avec un tiret pour effectuer un zoom arrière, ou sur les flèches vertes pour les cartes adjacentes.


METAR-TAF: